Flight Track Log - Related Links

Times and Time Zones

All times are in EDT time to prevent confusion due to time zone crossing. See the CEY502 flight status page for this flight to view local times or setup timezone preferences in your user account.

Time Position Orientation Groundspeed Altitude Reporting Facility
EDT Latitude Longitude Course Direction KTS MPH feet Rate Location/Type
Sun 06:53:57 PM 18.4333 -65.9667 317° Northwest 140 161 1,100  Level San Juan Center
Sun 06:54:58 PM 18.4667 -66.0000 317° Northwest 180 207 3,100 1,835 Climbing San Juan Center
Sun 06:55:58 PM 18.4667 -66.0500 270° West 200 230 4,800 1,850 Climbing San Juan Center
Sun 06:56:58 PM 18.4500 -66.1000 251° West 190 219 6,800 1,736 Climbing San Juan Center
Sun 06:57:59 PM 18.4500 -66.1667 270° West 200 230 8,300 1,388 Climbing San Juan Center
Sun 06:58:59 PM 18.4500 -66.2167 270° West 200 230 9,600 1,300 Climbing San Juan Center
Sun 06:59:59 PM 18.4500 -66.2833 270° West 210 242 10,900 1,250 Climbing San Juan Center
Sun 07:00:59 PM 18.4667 -66.3333 289° West 210 242 12,100 1,091 Climbing San Juan Center
Sun 07:02:00 PM 18.4667 -66.4000 270° West 210 242 13,100 1,041 Climbing San Juan Center
Sun 07:03:00 PM 18.4667 -66.4667 270° West 210 242 14,200 1,100 Climbing San Juan Center
Sun 07:04:00 PM 18.4667 -66.5333 270° West 210 242 15,300 942 Climbing San Juan Center
Sun 07:05:01 PM 18.4833 -66.5833 289° West 210 242 16,100 893 Climbing San Juan Center
Sun 07:06:01 PM 18.4833 -66.6500 270° West 210 242 17,100 750 Climbing San Juan Center
Sun 07:07:01 PM 18.4833 -66.7000 270° West 220 253 17,600 446 Climbing San Juan Center
Sun 07:08:02 PM 18.4833 -66.7667 270° West 240 276 18,000 198 Climbing San Juan Center
Sun 07:09:02 PM 18.4833 -66.8500 270° West 250 288 18,000  Level San Juan Center
Sun 07:10:02 PM 18.4833 -66.9167 270° West 250 288 18,000  Level San Juan Center
Sun 07:11:03 PM 18.4833 -66.9833 270° West 250 288 18,000  Level San Juan Center
Sun 07:12:03 PM 18.4833 -67.0667 270° West 240 276 18,000  Level San Juan Center
Sun 07:13:03 PM 18.4833 -67.1500 270° West 260 299 18,000  Level San Juan Center
Sun 07:15:04 PM 18.5000 -67.3000 277° West 260 299 18,000  Level San Juan Center
Sun 07:16:04 PM 18.5000 -67.3667 270° West 260 299 18,000  Level San Juan Center
Sun 07:17:04 PM 18.5000 -67.4500 270° West 250 288 18,000  Level San Juan Center
Sun 07:18:05 PM 18.5000 -67.5167 270° West 250 288 18,000  Level San Juan Center
Sun 07:19:05 PM 18.5000 -67.6000 270° West 250 288 18,000 -50 Level San Juan Center
Sun 07:20:05 PM 18.4833 -67.6667 255° West 260 299 17,900 -50 Descending San Juan Center
Sun 07:21:06 PM 18.4833 -67.7500 270° West 250 288 17,900  Level San Juan Center
Sun 07:22:06 PM 18.4833 -67.8167 270° West 250 288 17,900 50 Level San Juan Center
Sun 07:23:06 PM 18.4833 -67.9000 270° West 250 288 18,000  Climbing San Juan Center
Sun 07:24:06 PM 18.4833 -67.9667 270° West 260 299 17,900 -100 Descending San Juan Center
Sun 07:26:00 PM 18.4644 -68.0900 268° West  Level FlightAware Approximate
Sun 07:33:00 PM 18.4521 -68.5442 268° West  Level FlightAware Approximate
Sun 07:34:00 PM 18.4502 -68.6091 268° West  Level FlightAware Approximate
Sun 07:35:00 PM 18.4500 -68.6740 270° West  Level FlightAware Approximate
Sun 07:36:00 PM 18.4500 -68.7390 270° West  Level FlightAware Approximate
Sun 07:37:00 PM 18.4500 -68.8039 270° West  Level FlightAware Approximate
Sun 07:38:00 PM 18.4490 -68.8688 267° West  Level FlightAware Approximate
Sun 07:39:00 PM 18.4457 -68.9336 267° West  Level FlightAware Approximate
Sun 07:40:00 PM 18.4422 -68.9984 267° West  Level FlightAware Approximate
Sun 07:41:00 PM 18.4388 -69.0632 267° West  Level FlightAware Approximate
Sun 07:42:00 PM 18.4354 -69.1280 267° West  Level FlightAware Approximate
Sun 07:43:00 PM 18.4333 -69.1929 270° West  Level FlightAware Approximate
Sun 07:44:00 PM 18.4333 -69.2578 270° West  Level FlightAware Approximate
Sun 07:45:00 PM 18.4333 -69.3227 270° West  Level FlightAware Approximate
Sun 07:46:00 PM 18.4333 -69.3876 270° West  Level FlightAware Approximate
Sun 07:47:00 PM 18.4334 -69.4525 270° West  Level FlightAware Approximate
Sun 07:48:00 PM 18.4333 -69.5174 270° West  Level FlightAware Approximate
Sun 07:49:00 PM 18.4308 -69.5821 260° West  Level FlightAware Approximate
Sun 07:50:00 PM 18.4201 -69.6460 260° West  Level FlightAware Approximate
Sun 07:51:00 PM 18.4425 -69.7011 308° West  Level FlightAware Approximate
Sun 07:52:00 PM 18.4699 -69.7564 298° West  Level FlightAware Approximate
Sun 07:53:00 PM 18.4986 -69.8138 298° West  Level FlightAware Approximate
Sun 07:54:00 PM 18.5228 -69.8735 293° West  Level FlightAware Approximate
Sun 07:55:00 PM 18.5467 -69.9334 293° West  Level FlightAware Approximate
Sun 07:56:00 PM 18.5667 -69.9833 293° West  Level FlightAware Approximate
Sun 07:57:00 PM 18.5725 -69.9856 293° West  Level Estimated
Sun 07:58:00 PM 18.5667 -69.9833 293° West  Level FlightAware Approximate
Sun 07:59:00 PM 18.5725 -69.9856 293° West  Level Estimated
Sun 08:00:00 PM 18.5667 -69.9833 293° West  Level FlightAware Approximate
Sun 08:01:00 PM 18.5725 -69.9856 293° West  Level Estimated
Sun 08:02:00 PM 18.5667 -69.9833 293° West  Level FlightAware Approximate
Sun 08:03:00 PM 18.5725 -69.9856 293° West  Level Estimated
Sun 08:04:00 PM 18.5667 -69.9833 293° West  Level FlightAware Approximate

Login

Don't have an account? Register now (free) for customized features, flight alerts, and more!